createdAt,value
2022-09-12T00:01:55.451Z,3.95
2022-09-12T00:04:41.138Z,3.33
2022-09-12T00:07:27.298Z,3.72
2022-09-12T00:10:13.698Z,3.50
2022-09-12T00:12:59.291Z,3.55
2022-09-12T00:15:45.614Z,3.30
2022-09-12T00:18:32.204Z,3.85
2022-09-12T00:21:18.917Z,4.28
2022-09-12T00:24:05.790Z,3.63
2022-09-12T00:26:51.390Z,3.33
2022-09-12T00:29:37.544Z,3.80
2022-09-12T00:32:23.413Z,3.65
2022-09-12T00:35:09.880Z,3.70
2022-09-12T00:37:55.716Z,3.20
2022-09-12T00:40:42.386Z,3.80
2022-09-12T00:43:40.143Z,4.07
2022-09-12T00:46:32.075Z,3.67
2022-09-12T00:49:25.741Z,4.03
2022-09-12T00:52:33.520Z,4.03
2022-09-12T00:55:38.226Z,3.67
2022-09-12T00:58:36.069Z,3.92
2022-09-12T01:01:21.760Z,3.88
2022-09-12T01:04:09.489Z,4.25
2022-09-12T01:06:57.361Z,4.38
2022-09-12T01:09:44.610Z,4.05
2022-09-12T01:12:31.377Z,4.80
2022-09-12T01:15:17.347Z,3.60
2022-09-12T01:18:32.905Z,3.75
2022-09-12T01:21:30.541Z,4.00
2022-09-12T01:25:00.074Z,4.45
2022-09-12T01:27:52.236Z,4.40
2022-09-12T01:31:00.974Z,4.05
2022-09-12T01:34:13.803Z,4.28
2022-09-12T01:37:09.453Z,4.00
2022-09-12T01:40:21.675Z,3.70
2022-09-12T01:43:37.796Z,4.13
2022-09-12T01:46:43.963Z,3.80
2022-09-12T01:49:37.914Z,4.55
2022-09-12T01:52:39.789Z,4.10
2022-09-12T01:55:32.896Z,3.78
2022-09-12T01:58:26.926Z,4.13
2022-09-12T02:01:16.600Z,4.40
2022-09-12T02:04:24.769Z,4.70
2022-09-12T02:07:20.192Z,4.18
2022-09-12T02:10:12.106Z,4.18
2022-09-12T02:13:01.850Z,4.10
2022-09-12T02:15:52.026Z,4.13
2022-09-12T02:18:45.308Z,4.00
2022-09-12T02:21:33.100Z,4.22
2022-09-12T02:24:20.958Z,4.10
2022-09-12T02:27:16.545Z,3.70
2022-09-12T02:30:02.563Z,3.35
2022-09-12T02:32:51.558Z,4.13
2022-09-12T02:35:53.093Z,4.07
2022-09-12T02:38:47.047Z,4.05
2022-09-12T02:41:33.341Z,4.20
2022-09-12T02:44:20.792Z,3.83
2022-09-12T02:47:14.558Z,4.22
2022-09-12T02:50:00.401Z,4.18
2022-09-12T02:52:46.644Z,4.75
2022-09-12T02:55:34.545Z,3.70
2022-09-12T02:58:24.515Z,4.20
2022-09-12T03:01:19.011Z,4.10
2022-09-12T03:04:07.981Z,3.85
2022-09-12T03:07:07.914Z,4.50
2022-09-12T03:10:18.642Z,4.43
2022-09-12T03:13:25.943Z,3.90
2022-09-12T03:16:24.969Z,4.22
2022-09-12T03:19:55.750Z,3.95
2022-09-12T03:22:52.940Z,4.18
2022-09-12T03:25:48.041Z,4.68
2022-09-12T03:28:35.769Z,4.97
2022-09-12T03:31:22.515Z,4.00
2022-09-12T03:34:13.027Z,4.03
2022-09-12T03:36:59.467Z,3.70
2022-09-12T03:39:44.878Z,4.45
2022-09-12T03:42:30.777Z,3.88
2022-09-12T03:45:16.695Z,3.83
2022-09-12T03:48:04.058Z,4.00
2022-09-12T03:50:49.753Z,4.20
2022-09-12T03:53:36.830Z,4.00
2022-09-12T03:56:22.491Z,4.65
2022-09-12T03:59:08.887Z,4.53
2022-09-12T04:01:54.768Z,3.97
2022-09-12T04:04:43.323Z,3.80
2022-09-12T04:07:29.634Z,4.05
2022-09-12T04:10:16.339Z,4.00
2022-09-12T04:13:02.540Z,3.92
2022-09-12T04:15:59.580Z,3.65
2022-09-12T04:18:46.694Z,3.63
2022-09-12T04:21:32.795Z,4.00
2022-09-12T04:24:20.706Z,4.50
2022-09-12T04:27:08.597Z,4.50
2022-09-12T04:29:55.356Z,3.63
2022-09-12T04:32:41.554Z,3.88
2022-09-12T04:35:27.777Z,4.70
2022-09-12T04:38:13.739Z,3.65
2022-09-12T04:41:00.372Z,3.97
2022-09-12T04:43:47.672Z,3.92
2022-09-12T04:46:36.339Z,4.50
2022-09-12T04:49:21.911Z,4.05
2022-09-12T04:52:08.227Z,3.92
2022-09-12T04:54:54.340Z,4.80
2022-09-12T04:57:40.051Z,4.50
2022-09-12T05:00:25.729Z,5.07
2022-09-12T05:03:11.473Z,4.13
2022-09-12T05:05:57.683Z,4.60
2022-09-12T05:08:44.210Z,4.30
2022-09-12T05:12:00.161Z,4.57
2022-09-12T05:14:38.792Z,3.95
2022-09-12T05:17:25.520Z,4.20
2022-09-12T05:20:12.851Z,4.55
2022-09-12T05:22:59.904Z,4.43
2022-09-12T05:25:52.757Z,4.72
2022-09-12T05:28:39.666Z,5.10
2022-09-12T05:31:27.605Z,5.03
2022-09-12T05:34:16.981Z,4.68
2022-09-12T05:37:02.629Z,4.55
2022-09-12T05:39:48.985Z,4.55
2022-09-12T05:42:34.537Z,5.97
2022-09-12T05:45:21.490Z,5.03
2022-09-12T05:48:07.105Z,4.65
2022-09-12T05:50:53.055Z,4.70
2022-09-12T05:53:40.265Z,5.43
2022-09-12T05:56:28.794Z,4.30
2022-09-12T05:59:22.364Z,5.05
2022-09-12T06:02:10.180Z,5.38
2022-09-12T06:04:56.078Z,5.30
2022-09-12T06:07:41.844Z,4.80
2022-09-12T06:10:28.299Z,5.50
2022-09-12T06:13:14.281Z,4.55
2022-09-12T06:16:11.371Z,4.95
2022-09-12T06:19:10.420Z,4.28
2022-09-12T06:22:07.789Z,4.65
2022-09-12T06:24:57.764Z,4.72
2022-09-12T06:30:32.501Z,4.10
2022-09-12T06:33:19.056Z,4.45
2022-09-12T06:36:11.578Z,3.70
2022-09-12T06:39:07.633Z,3.50
2022-09-12T06:41:54.562Z,4.20
2022-09-12T06:44:52.075Z,4.07
2022-09-12T06:47:37.729Z,4.07
2022-09-12T06:50:23.961Z,4.28
2022-09-12T06:53:10.081Z,4.50
2022-09-12T06:56:00.533Z,4.45
2022-09-12T06:58:49.716Z,5.00
2022-09-12T07:01:35.639Z,3.75
2022-09-12T07:04:22.151Z,5.30
2022-09-12T07:07:08.021Z,5.00
2022-09-12T07:09:54.226Z,3.80
2022-09-12T07:12:39.995Z,4.82
2022-09-12T07:15:25.774Z,4.47
2022-09-12T07:18:11.349Z,4.50
2022-09-12T07:21:00.316Z,4.15
2022-09-12T07:23:46.166Z,3.92
2022-09-12T07:26:32.612Z,3.35
2022-09-12T07:29:36.700Z,3.60
2022-09-12T07:32:23.398Z,4.30
2022-09-12T07:35:08.997Z,4.10
2022-09-12T07:37:55.126Z,4.05
2022-09-12T07:40:40.879Z,3.70
2022-09-12T07:43:27.311Z,4.43
2022-09-12T07:46:12.982Z,4.60
2022-09-12T07:49:00.826Z,4.20
2022-09-12T07:51:46.818Z,3.95
2022-09-12T07:54:33.326Z,4.50
2022-09-12T07:57:19.505Z,4.15
2022-09-12T08:00:07.421Z,3.40
2022-09-12T08:02:58.027Z,3.90
2022-09-12T08:05:44.167Z,3.35
2022-09-12T08:08:29.921Z,3.10
2022-09-12T08:11:18.156Z,3.55
2022-09-12T08:14:05.688Z,3.78
2022-09-12T08:16:51.893Z,4.07
2022-09-12T08:19:38.835Z,3.97
2022-09-12T08:22:25.862Z,3.20
2022-09-12T08:25:11.881Z,3.42
2022-09-12T08:27:57.820Z,3.80
2022-09-12T08:30:43.367Z,3.85
2022-09-12T08:33:33.210Z,3.55
2022-09-12T08:36:21.389Z,3.40
2022-09-12T08:39:07.940Z,3.42
2022-09-12T08:42:04.876Z,3.17
2022-09-12T08:45:17.761Z,2.90
2022-09-12T08:48:05.004Z,3.20
2022-09-12T08:50:51.450Z,2.78
2022-09-12T08:53:37.640Z,2.75
2022-09-12T08:56:27.428Z,2.10
2022-09-12T08:59:16.594Z,2.67
2022-09-12T09:02:04.500Z,2.38
2022-09-12T09:04:52.260Z,2.30
2022-09-12T09:08:08.953Z,3.28
2022-09-12T09:11:21.436Z,2.20
2022-09-12T09:14:48.320Z,2.50
2022-09-12T09:17:50.026Z,1.90
2022-09-12T09:20:47.363Z,2.15
2022-09-12T09:23:46.339Z,2.33
2022-09-12T09:26:56.575Z,2.47
2022-09-12T09:29:47.078Z,1.85
2022-09-12T09:32:38.550Z,2.03
2022-09-12T09:35:45.656Z,2.40
2022-09-12T09:38:51.066Z,2.00
2022-09-12T09:41:46.297Z,1.92
2022-09-12T09:44:32.411Z,2.17
2022-09-12T09:47:18.567Z,2.78
2022-09-12T09:50:04.374Z,2.38
2022-09-12T09:52:52.109Z,2.10
2022-09-12T09:55:43.853Z,2.45
2022-09-12T09:58:31.291Z,2.20
2022-09-12T10:01:18.221Z,2.58
2022-09-12T10:04:04.411Z,1.80
2022-09-12T10:06:57.033Z,2.25
2022-09-12T10:09:42.685Z,2.25
2022-09-12T10:12:28.821Z,2.20
2022-09-12T10:15:26.976Z,2.38
2022-09-12T10:18:51.069Z,2.60
2022-09-12T10:21:48.253Z,2.17
2022-09-12T10:24:41.165Z,2.08
2022-09-12T10:27:33.186Z,1.63
2022-09-12T10:30:21.717Z,2.63
2022-09-12T10:33:11.203Z,1.75
2022-09-12T10:36:03.630Z,1.85
2022-09-12T10:38:54.697Z,1.63
2022-09-12T10:41:41.153Z,1.55
2022-09-12T10:44:33.269Z,1.98
2022-09-12T10:47:22.671Z,1.88
2022-09-12T10:50:24.098Z,1.70
2022-09-12T10:53:30.990Z,1.70
2022-09-12T10:56:26.427Z,2.00
2022-09-12T10:59:34.358Z,1.77
2022-09-12T11:02:35.125Z,1.80
2022-09-12T11:05:43.140Z,1.63
2022-09-12T11:08:53.965Z,1.60
2022-09-12T11:11:46.252Z,1.60
2022-09-12T11:14:47.141Z,2.00
2022-09-12T11:17:36.120Z,2.03
2022-09-12T11:20:51.558Z,1.75
2022-09-12T11:23:49.449Z,1.60
2022-09-12T11:26:55.630Z,1.60
2022-09-12T11:29:48.558Z,1.67
2022-09-12T11:32:46.641Z,1.60
2022-09-12T11:35:34.141Z,1.73
2022-09-12T11:38:35.161Z,3.20
2022-09-12T11:41:29.455Z,1.65
2022-09-12T11:44:22.658Z,1.70
2022-09-12T11:47:12.136Z,1.92
2022-09-12T11:49:59.893Z,1.92
2022-09-12T11:52:46.867Z,1.60
2022-09-12T11:56:06.309Z,1.58
2022-09-12T11:59:00.071Z,1.80
2022-09-12T12:01:48.707Z,2.35
2022-09-12T12:04:41.745Z,1.42
2022-09-12T12:07:34.637Z,1.20
2022-09-12T12:10:26.692Z,1.98
2022-09-12T12:13:15.596Z,1.35
2022-09-12T12:16:21.501Z,1.45
2022-09-12T12:19:20.443Z,1.30
2022-09-12T12:22:08.852Z,1.42
2022-09-12T12:25:04.022Z,1.50
2022-09-12T12:28:01.401Z,1.50
2022-09-12T12:30:53.371Z,1.50
2022-09-12T12:33:38.813Z,1.63
2022-09-12T12:36:40.326Z,1.48
2022-09-12T12:39:32.006Z,1.40
2022-09-12T12:42:35.859Z,1.50
2022-09-12T12:45:27.893Z,1.45
2022-09-12T12:48:17.400Z,1.25
2022-09-12T12:51:25.934Z,1.25
2022-09-12T12:54:33.653Z,1.33
2022-09-12T12:57:27.545Z,1.30
2022-09-12T13:00:26.187Z,1.60
2022-09-12T13:03:27.628Z,1.58
2022-09-12T13:06:46.453Z,2.40
2022-09-12T13:09:44.432Z,1.55
2022-09-12T13:12:33.992Z,1.40
2022-09-12T13:15:47.692Z,3.38
2022-09-12T13:18:46.691Z,3.80
2022-09-12T13:21:33.446Z,1.20
2022-09-12T13:24:22.787Z,1.40
2022-09-12T13:27:23.532Z,1.55
2022-09-12T13:30:14.080Z,1.70
2022-09-12T13:33:10.521Z,1.50
2022-09-12T13:36:18.736Z,1.60
2022-09-12T13:39:27.337Z,1.60
2022-09-12T13:42:30.770Z,1.27
2022-09-12T13:45:22.886Z,1.73
2022-09-12T13:48:14.306Z,1.52
2022-09-12T13:51:01.885Z,1.95
2022-09-12T13:53:47.862Z,1.52
2022-09-12T13:56:34.453Z,1.55
2022-09-12T13:59:19.800Z,1.60
2022-09-12T14:02:23.644Z,1.20
2022-09-12T14:05:21.731Z,1.30
2022-09-12T14:08:08.664Z,1.40
2022-09-12T14:10:55.432Z,1.23
2022-09-12T14:13:41.247Z,1.65
2022-09-12T14:16:29.356Z,1.55
2022-09-12T14:19:17.068Z,1.33
2022-09-12T14:22:03.057Z,1.20
2022-09-12T14:24:53.092Z,1.42
2022-09-12T14:27:45.712Z,1.23
2022-09-12T14:30:40.799Z,1.40
2022-09-12T14:33:26.552Z,1.30
2022-09-12T14:36:20.626Z,1.25
2022-09-12T14:39:34.785Z,1.50
2022-09-12T14:42:22.434Z,1.70
2022-09-12T14:45:27.805Z,1.45
2022-09-12T14:48:18.600Z,1.50
2022-09-12T14:51:05.512Z,1.55
2022-09-12T14:53:51.512Z,1.60
2022-09-12T14:56:42.650Z,1.60
2022-09-12T14:59:34.806Z,1.90
2022-09-12T15:02:22.530Z,1.75
2022-09-12T15:05:08.747Z,1.65
2022-09-12T15:08:01.418Z,1.95
2022-09-12T15:10:47.679Z,1.83
2022-09-12T15:13:40.138Z,1.80
2022-09-12T15:16:26.579Z,1.90
2022-09-12T15:19:12.170Z,2.00
2022-09-12T15:21:58.161Z,1.85
2022-09-12T15:24:43.532Z,1.60
2022-09-12T15:27:29.904Z,1.83
2022-09-12T15:30:16.072Z,1.65
2022-09-12T15:33:01.689Z,1.85
2022-09-12T15:35:47.770Z,1.60
2022-09-12T15:38:34.119Z,1.55
2022-09-12T15:41:33.548Z,1.90
2022-09-12T15:44:20.218Z,1.88
2022-09-12T15:47:06.195Z,1.67
2022-09-12T15:49:52.524Z,2.05
2022-09-12T15:52:38.253Z,1.70
2022-09-12T15:55:27.957Z,1.95
2022-09-12T15:58:14.111Z,1.42
2022-09-12T16:01:00.141Z,1.45
2022-09-12T16:03:47.621Z,1.95
2022-09-12T16:06:37.228Z,1.60
2022-09-12T16:09:24.132Z,1.42
2022-09-12T16:12:10.577Z,1.67
2022-09-12T16:14:57.293Z,1.42
2022-09-12T16:17:43.565Z,1.33
2022-09-12T16:20:29.524Z,1.50
2022-09-12T16:23:16.120Z,1.65
2022-09-12T16:26:04.465Z,1.73
2022-09-12T16:29:00.321Z,1.80
2022-09-12T16:31:46.045Z,1.70
2022-09-12T16:34:31.868Z,1.52
2022-09-12T16:37:18.254Z,2.03
2022-09-12T16:40:05.268Z,2.10
2022-09-12T16:42:51.297Z,2.20
2022-09-12T16:45:37.132Z,2.25
2022-09-12T16:48:22.591Z,2.30
2022-09-12T16:51:08.271Z,3.75
2022-09-12T16:53:55.386Z,2.92
2022-09-12T16:56:42.056Z,2.45
2022-09-12T16:59:28.011Z,3.03
2022-09-12T17:02:15.138Z,4.65
2022-09-12T17:05:00.500Z,6.03
2022-09-12T17:07:48.476Z,5.70
2022-09-12T17:10:34.928Z,5.10
2022-09-12T17:13:21.187Z,5.93
2022-09-12T17:16:11.667Z,5.80
2022-09-12T17:18:57.875Z,5.10
2022-09-12T17:21:48.866Z,5.22
2022-09-12T17:24:34.985Z,5.57
2022-09-12T17:27:20.526Z,6.07
2022-09-12T17:30:07.714Z,5.05
2022-09-12T17:32:54.113Z,5.80
2022-09-12T17:35:39.805Z,5.75
2022-09-12T17:38:26.048Z,5.50
2022-09-12T17:41:16.038Z,5.82
2022-09-12T17:44:04.002Z,5.97
2022-09-12T17:46:49.914Z,5.25
2022-09-12T17:49:37.841Z,4.97
2022-09-12T17:52:23.539Z,6.03
2022-09-12T17:55:09.685Z,5.00
2022-09-12T17:57:56.492Z,4.82
2022-09-12T18:01:00.886Z,4.22
2022-09-12T18:03:47.170Z,4.70
2022-09-12T18:06:33.465Z,4.60
2022-09-12T18:09:21.649Z,4.38
2022-09-12T18:12:11.049Z,3.88
2022-09-12T18:14:57.508Z,4.70
2022-09-12T18:17:44.466Z,4.70
2022-09-12T18:20:30.491Z,4.45
2022-09-12T18:23:16.761Z,6.20
2022-09-12T18:26:08.529Z,5.18
2022-09-12T18:28:54.475Z,5.18
2022-09-12T18:31:40.454Z,5.18
2022-09-12T18:34:26.651Z,5.38
2022-09-12T18:37:12.982Z,6.10
2022-09-12T18:39:59.084Z,5.22
2022-09-12T18:42:44.756Z,5.78
2022-09-12T18:45:30.630Z,9.82
2022-09-12T18:48:16.660Z,16.92
2022-09-12T18:51:06.210Z,11.55
2022-09-12T18:53:54.839Z,12.30
2022-09-12T18:56:43.571Z,12.55
2022-09-12T18:59:29.402Z,11.48
2022-09-12T19:02:16.514Z,11.27
2022-09-12T19:05:02.570Z,11.18
2022-09-12T19:07:48.483Z,10.88
2022-09-12T19:10:34.683Z,11.80
2022-09-12T19:13:20.534Z,11.82
2022-09-12T19:16:11.664Z,11.15
2022-09-12T19:18:59.366Z,11.10
2022-09-12T19:21:45.641Z,11.52
2022-09-12T19:24:31.475Z,12.38
2022-09-12T19:27:17.444Z,11.18
2022-09-12T19:30:03.373Z,10.80
2022-09-12T19:32:49.793Z,10.82
2022-09-12T19:35:37.588Z,11.25
2022-09-12T19:38:23.034Z,10.40
2022-09-12T19:41:15.032Z,11.38
2022-09-12T19:44:01.395Z,10.43
2022-09-12T19:46:47.690Z,11.20
2022-09-12T19:49:33.773Z,10.82
2022-09-12T19:52:19.848Z,10.63
2022-09-12T19:55:06.835Z,11.23
2022-09-12T19:57:53.734Z,10.63
2022-09-12T20:00:40.508Z,10.40
2022-09-12T20:03:26.670Z,10.35
2022-09-12T20:06:18.405Z,10.73
2022-09-12T20:11:50.413Z,10.45
2022-09-12T20:14:36.366Z,12.00
2022-09-12T20:17:25.214Z,10.93
2022-09-12T20:20:11.773Z,11.35
2022-09-12T20:22:57.764Z,10.85
2022-09-12T20:25:43.681Z,10.40
2022-09-12T20:28:30.483Z,14.45
2022-09-12T20:31:16.783Z,12.32
2022-09-12T20:34:04.132Z,12.63
2022-09-12T20:36:50.075Z,12.63
2022-09-12T20:39:36.161Z,12.85
2022-09-12T20:42:21.550Z,10.23
2022-09-12T20:45:07.588Z,10.48
2022-09-12T20:47:53.652Z,11.50
2022-09-12T20:50:39.349Z,11.23
2022-09-12T20:53:25.137Z,9.90
2022-09-12T20:56:11.102Z,10.70
2022-09-12T20:58:57.026Z,11.38
2022-09-12T21:01:44.327Z,9.75
2022-09-12T21:04:30.371Z,10.55
2022-09-12T21:07:16.544Z,11.43
2022-09-12T21:10:02.432Z,10.98
2022-09-12T21:12:48.625Z,11.95
2022-09-12T21:15:34.779Z,11.32
2022-09-12T21:18:20.555Z,10.73
2022-09-12T21:21:08.146Z,10.35
2022-09-12T21:23:58.168Z,10.25
2022-09-12T21:26:44.222Z,10.80
2022-09-12T21:29:30.715Z,11.50
2022-09-12T21:32:16.673Z,11.35
2022-09-12T21:35:03.962Z,10.77
2022-09-12T21:37:52.077Z,10.85
2022-09-12T21:40:38.098Z,11.93
2022-09-12T21:43:23.893Z,10.73
2022-09-12T21:46:10.462Z,12.07
2022-09-12T21:48:56.495Z,12.38
2022-09-12T21:51:42.314Z,12.18
2022-09-12T21:54:28.048Z,13.35
2022-09-12T21:57:13.608Z,12.00
2022-09-12T21:59:59.627Z,11.20
2022-09-12T22:02:47.467Z,11.45
2022-09-12T22:05:34.438Z,11.50
2022-09-12T22:08:20.113Z,15.27
2022-09-12T22:11:09.633Z,15.30
2022-09-12T22:13:55.969Z,11.75
2022-09-12T22:16:41.506Z,10.80
2022-09-12T22:19:27.521Z,10.45
2022-09-12T22:22:32.312Z,10.27
2022-09-12T22:25:20.119Z,11.70
2022-09-12T22:28:05.882Z,11.98
2022-09-12T22:30:53.300Z,12.75
2022-09-12T22:33:39.287Z,13.10
2022-09-12T22:36:29.242Z,24.02
2022-09-12T22:39:16.617Z,22.05
2022-09-12T22:42:03.893Z,15.75
2022-09-12T22:44:49.397Z,13.27
2022-09-12T22:47:36.030Z,12.75
2022-09-12T22:50:21.521Z,14.18
2022-09-12T22:53:07.241Z,12.95
2022-09-12T22:55:52.996Z,12.48
2022-09-12T22:58:38.916Z,11.82
2022-09-12T23:01:24.569Z,10.88
2022-09-12T23:04:10.810Z,11.85
2022-09-12T23:06:56.236Z,10.07
2022-09-12T23:09:42.100Z,10.60
2022-09-12T23:12:28.109Z,10.75
2022-09-12T23:15:14.969Z,9.95
2022-09-12T23:18:00.505Z,9.55
2022-09-12T23:21:06.003Z,9.95
2022-09-12T23:23:52.237Z,9.15
2022-09-12T23:26:38.584Z,9.02
2022-09-12T23:29:24.340Z,9.52
2022-09-12T23:32:10.789Z,9.25
2022-09-12T23:34:56.473Z,9.68
2022-09-12T23:37:42.607Z,9.65
2022-09-12T23:40:28.021Z,8.40
2022-09-12T23:43:13.878Z,10.20
2022-09-12T23:46:00.483Z,9.38
2022-09-12T23:48:47.181Z,9.10
2022-09-12T23:51:33.331Z,9.50
2022-09-12T23:54:18.897Z,9.25
2022-09-12T23:57:04.967Z,11.60
2022-09-12T23:59:51.152Z,14.10
